createdAt,value
2023-02-22T00:00:50.139Z,99018.59
2023-02-22T00:03:25.258Z,99016.28
2023-02-22T00:05:55.645Z,99010.38
2023-02-22T00:08:30.711Z,99011.13
2023-02-22T00:11:09.367Z,99014.03
2023-02-22T00:13:40.016Z,99002.06
2023-02-22T00:16:12.990Z,99005.78
2023-02-22T00:18:40.903Z,99004.78
2023-02-22T00:21:11.447Z,99001.47
2023-02-22T00:23:46.430Z,99002.88
2023-02-22T00:26:18.540Z,98994.53
2023-02-22T00:28:48.005Z,99003.28
2023-02-22T00:31:16.492Z,98997.97
2023-02-22T00:33:44.941Z,98995.81
2023-02-22T00:36:14.132Z,98997.56
2023-02-22T00:38:44.088Z,98989.03
2023-02-22T00:41:15.091Z,98992.72
2023-02-22T00:43:43.227Z,98995.41
2023-02-22T00:46:12.755Z,98997.25
2023-02-22T00:48:41.089Z,98993.72
2023-02-22T00:51:09.412Z,98986.72
2023-02-22T00:53:37.201Z,98986.00
2023-02-22T00:56:12.244Z,98983.28
2023-02-22T00:58:43.012Z,98982.72
2023-02-22T01:01:11.472Z,98978.16
2023-02-22T01:03:41.248Z,98975.25
2023-02-22T01:06:09.474Z,98970.19
2023-02-22T01:08:37.782Z,98976.38
2023-02-22T01:11:06.800Z,98970.16
2023-02-22T01:13:35.178Z,98965.78
2023-02-22T01:16:04.180Z,98969.34
2023-02-22T01:18:32.678Z,98965.94
2023-02-22T01:21:01.920Z,98963.50
2023-02-22T01:23:29.859Z,98964.56
2023-02-22T01:25:58.320Z,98954.88
2023-02-22T01:28:31.259Z,98958.44
2023-02-22T01:30:59.586Z,98960.72
2023-02-22T01:33:27.943Z,98956.84
2023-02-22T01:35:56.540Z,98950.91
2023-02-22T01:38:24.882Z,98953.78
2023-02-22T01:40:53.415Z,98944.81
2023-02-22T01:43:24.127Z,98943.66
2023-02-22T01:46:00.150Z,98944.53
2023-02-22T01:48:33.245Z,98943.72
2023-02-22T01:51:03.218Z,98947.25
2023-02-22T01:53:34.400Z,98941.25
2023-02-22T01:56:03.069Z,98945.41
2023-02-22T01:58:32.508Z,98938.53
2023-02-22T02:01:02.448Z,98941.38
2023-02-22T02:03:33.331Z,98940.00
2023-02-22T02:06:05.507Z,98941.97
2023-02-22T02:08:37.538Z,98932.66
2023-02-22T02:11:09.249Z,98940.63
2023-02-22T02:13:37.338Z,98943.53
2023-02-22T02:16:06.882Z,98940.22
2023-02-22T02:18:34.541Z,98935.63
2023-02-22T02:21:40.415Z,98937.63
2023-02-22T02:24:28.950Z,98930.56
2023-02-22T02:27:15.511Z,98924.75
2023-02-22T02:30:19.255Z,98927.50
2023-02-22T02:32:53.868Z,98916.44
2023-02-22T02:35:30.558Z,98917.59
2023-02-22T02:38:03.691Z,98920.97
2023-02-22T02:40:36.161Z,98911.28
2023-02-22T02:43:08.553Z,98918.88
2023-02-22T02:45:40.394Z,98910.03
2023-02-22T02:48:11.044Z,98913.34
2023-02-22T02:50:42.296Z,98911.53
2023-02-22T02:53:10.508Z,98913.31
2023-02-22T02:55:39.029Z,98913.16
2023-02-22T02:58:07.811Z,98907.97
2023-02-22T03:00:39.387Z,98908.75
2023-02-22T03:03:21.418Z,98898.34
2023-02-22T03:06:02.929Z,98905.25
2023-02-22T03:08:36.061Z,98884.84
2023-02-22T03:11:14.874Z,98894.91
2023-02-22T03:13:52.787Z,98901.25
2023-02-22T03:16:24.744Z,98890.72
2023-02-22T03:18:57.579Z,98891.09
2023-02-22T03:21:30.088Z,98893.59
2023-02-22T03:24:03.821Z,98894.59
2023-02-22T03:26:36.919Z,98894.47
2023-02-22T03:29:06.368Z,98875.44
2023-02-22T03:31:37.214Z,98888.44
2023-02-22T03:34:09.651Z,98885.59
2023-02-22T03:36:39.893Z,98880.69
2023-02-22T03:39:08.797Z,98877.22
2023-02-22T03:41:38.571Z,98873.75
2023-02-22T03:44:09.295Z,98879.09
2023-02-22T03:46:37.701Z,98873.81
2023-02-22T03:49:11.432Z,98880.69
2023-02-22T03:51:40.261Z,98878.16
2023-02-22T03:54:08.267Z,98879.13
2023-02-22T03:56:47.078Z,98875.22
2023-02-22T03:59:14.698Z,98879.91
2023-02-22T04:01:43.275Z,98874.84
2023-02-22T04:04:12.189Z,98872.97
2023-02-22T04:06:39.949Z,98876.44
2023-02-22T04:09:08.608Z,98872.94
2023-02-22T04:11:36.218Z,98871.16
2023-02-22T04:14:03.944Z,98871.38
2023-02-22T04:16:31.507Z,98866.38
2023-02-22T04:18:59.161Z,98874.06
2023-02-22T04:21:28.306Z,98873.31
2023-02-22T04:23:55.862Z,98857.53
2023-02-22T04:26:23.420Z,98862.41
2023-02-22T04:28:51.000Z,98857.34
2023-02-22T04:31:19.096Z,98849.63
2023-02-22T04:33:46.931Z,98861.00
2023-02-22T04:36:16.086Z,98858.44
2023-02-22T04:38:45.154Z,98863.72
2023-02-22T04:41:12.736Z,98855.94
2023-02-22T04:43:40.279Z,98853.50
2023-02-22T04:46:08.554Z,98845.91
2023-02-22T04:48:36.150Z,98854.72
2023-02-22T04:51:03.933Z,98851.34
2023-02-22T04:53:32.018Z,98839.88
2023-02-22T04:56:01.710Z,98851.41
2023-02-22T04:58:29.350Z,98846.28
2023-02-22T05:00:57.032Z,98841.97
2023-02-22T05:03:24.646Z,98843.16
2023-02-22T05:05:53.138Z,98836.16
2023-02-22T05:08:20.788Z,98837.63
2023-02-22T05:10:48.740Z,98832.31
2023-02-22T05:13:17.676Z,98844.38
2023-02-22T05:15:45.463Z,98833.38
2023-02-22T05:18:13.016Z,98836.78
2023-02-22T05:20:40.616Z,98834.84
2023-02-22T05:23:08.310Z,98834.16
2023-02-22T05:25:35.889Z,98831.59
2023-02-22T05:28:05.813Z,98829.41
2023-02-22T05:30:36.220Z,98828.63
2023-02-22T05:33:03.959Z,98827.06
2023-02-22T05:35:31.573Z,98826.94
2023-02-22T05:38:01.786Z,98801.16
2023-02-22T05:40:29.847Z,98818.38
2023-02-22T05:42:57.807Z,98826.06
2023-02-22T05:45:28.079Z,98826.97
2023-02-22T05:47:57.146Z,98824.31
2023-02-22T05:50:25.377Z,98825.19
2023-02-22T05:52:53.591Z,98825.28
2023-02-22T05:55:23.009Z,98821.81
2023-02-22T05:57:51.087Z,98820.25
2023-02-22T06:00:23.112Z,98820.44
2023-02-22T06:02:56.708Z,98827.09
2023-02-22T06:05:24.544Z,98825.06
2023-02-22T06:07:52.252Z,98822.63
2023-02-22T06:10:20.074Z,98832.22
2023-02-22T06:12:47.701Z,98831.25
2023-02-22T06:15:15.602Z,98832.09
2023-02-22T06:17:43.254Z,98833.91
2023-02-22T06:20:15.041Z,98837.50
2023-02-22T06:22:42.600Z,98832.06
2023-02-22T06:25:11.403Z,98835.50
2023-02-22T06:27:39.045Z,98823.34
2023-02-22T06:30:08.052Z,98833.81
2023-02-22T06:32:35.668Z,98837.53
2023-02-22T06:35:03.295Z,98842.66
2023-02-22T06:37:32.313Z,98840.88
2023-02-22T06:40:04.878Z,98843.50
2023-02-22T06:42:32.883Z,98846.13
2023-02-22T06:45:00.560Z,98846.03
2023-02-22T06:47:28.157Z,98852.81
2023-02-22T06:52:49.259Z,98865.59
2023-02-22T06:55:21.440Z,98862.94
2023-02-22T06:57:49.045Z,98838.94
2023-02-22T07:00:18.773Z,98871.41
2023-02-22T07:02:48.393Z,98875.66
2023-02-22T07:05:18.143Z,98873.88
2023-02-22T07:07:46.063Z,98870.34
2023-02-22T07:10:19.919Z,98883.34
2023-02-22T07:12:48.602Z,98873.56
2023-02-22T07:15:19.068Z,98884.84
2023-02-22T07:17:46.720Z,98875.22
2023-02-22T07:20:14.476Z,98882.81
2023-02-22T07:22:42.019Z,98874.19
2023-02-22T07:25:11.241Z,98883.59
2023-02-22T07:27:41.478Z,98872.09
2023-02-22T07:30:11.550Z,98881.44
2023-02-22T07:32:39.230Z,98875.28
2023-02-22T07:35:07.444Z,98876.97
2023-02-22T07:37:35.047Z,98872.47
2023-02-22T07:40:02.626Z,98870.69
2023-02-22T07:42:30.204Z,98866.41
2023-02-22T07:44:59.086Z,98870.94
2023-02-22T07:47:26.663Z,98874.03
2023-02-22T07:49:54.337Z,98874.78
2023-02-22T07:52:21.963Z,98871.84
2023-02-22T07:54:49.497Z,98868.75
2023-02-22T07:57:17.091Z,98867.56
2023-02-22T07:59:49.076Z,98872.59
2023-02-22T08:02:18.614Z,98875.41
2023-02-22T08:04:46.296Z,98869.53
2023-02-22T08:07:13.875Z,98869.53
2023-02-22T08:09:41.504Z,98875.69
2023-02-22T08:12:09.345Z,98850.28
2023-02-22T08:14:37.052Z,98871.44
2023-02-22T08:17:06.026Z,98850.44
2023-02-22T08:19:36.073Z,98864.03
2023-02-22T08:22:03.682Z,98848.97
2023-02-22T08:24:32.530Z,98859.19
2023-02-22T08:27:00.105Z,98875.41
2023-02-22T08:29:33.438Z,98874.44
2023-02-22T08:32:01.279Z,98872.56
2023-02-22T08:34:28.976Z,98882.09
2023-02-22T08:36:57.893Z,98882.63
2023-02-22T08:39:25.497Z,98887.88
2023-02-22T08:41:53.089Z,98881.09
2023-02-22T08:44:20.950Z,98870.69
2023-02-22T08:46:48.554Z,98866.38
2023-02-22T08:49:18.741Z,98874.38
2023-02-22T08:51:46.314Z,98884.69
2023-02-22T08:54:15.324Z,98873.75
2023-02-22T08:56:42.956Z,98880.38
2023-02-22T08:59:10.562Z,98877.84
2023-02-22T09:01:38.568Z,98876.81
2023-02-22T09:04:06.385Z,98876.69
2023-02-22T09:06:34.016Z,98880.56
2023-02-22T09:09:04.580Z,98879.00
2023-02-22T09:11:33.458Z,98875.41
2023-02-22T09:14:01.537Z,98868.84
2023-02-22T09:18:56.842Z,98875.38
2023-02-22T09:21:24.561Z,98866.41
2023-02-22T09:23:56.631Z,98840.41
2023-02-22T09:26:24.538Z,98846.19
2023-02-22T09:28:53.615Z,98841.28
2023-02-22T09:31:21.663Z,98852.63
2023-02-22T09:33:49.490Z,98828.00
2023-02-22T09:36:17.486Z,98862.25
2023-02-22T09:38:46.432Z,98842.22
2023-02-22T09:41:19.749Z,98855.53
2023-02-22T09:43:51.627Z,98848.66
2023-02-22T09:46:24.521Z,98865.91
2023-02-22T09:49:03.769Z,98852.97
2023-02-22T09:51:36.606Z,98849.53
2023-02-22T09:54:06.022Z,98851.22
2023-02-22T09:56:36.537Z,98848.91
2023-02-22T09:59:07.297Z,98852.44
2023-02-22T10:01:41.022Z,98844.19
2023-02-22T10:04:13.307Z,98845.59
2023-02-22T10:06:43.583Z,98854.16
2023-02-22T10:09:12.065Z,98844.50
2023-02-22T10:11:48.818Z,98833.84
2023-02-22T10:14:36.791Z,98842.75
2023-02-22T10:17:15.483Z,98838.72
2023-02-22T10:19:50.526Z,98815.91
2023-02-22T10:22:33.546Z,98847.28
2023-02-22T10:25:04.702Z,98818.53
2023-02-22T10:27:35.080Z,98845.94
2023-02-22T10:30:22.032Z,98845.88
2023-02-22T10:32:59.447Z,98839.06
2023-02-22T10:35:30.892Z,98840.50
2023-02-22T10:38:01.969Z,98837.47
2023-02-22T10:40:39.278Z,98831.59
2023-02-22T10:43:09.122Z,98836.16
2023-02-22T10:45:37.264Z,98835.66
2023-02-22T10:48:11.515Z,98836.50
2023-02-22T10:50:41.076Z,98831.06
2023-02-22T10:53:09.086Z,98830.31
2023-02-22T10:55:37.684Z,98827.41
2023-02-22T10:58:07.208Z,98823.72
2023-02-22T11:00:37.327Z,98821.53
2023-02-22T11:03:16.834Z,98823.53
2023-02-22T11:05:44.901Z,98790.97
2023-02-22T11:08:18.050Z,98814.97
2023-02-22T11:10:45.696Z,98813.16
2023-02-22T11:13:25.743Z,98805.09
2023-02-22T11:15:53.859Z,98813.06
2023-02-22T11:18:28.414Z,98797.28
2023-02-22T11:21:04.390Z,98797.88
2023-02-22T11:23:32.433Z,98799.91
2023-02-22T11:26:07.342Z,98797.59
2023-02-22T11:28:35.426Z,98793.13
2023-02-22T11:31:15.657Z,98790.19
2023-02-22T11:33:52.461Z,98788.31
2023-02-22T11:36:37.520Z,98789.00
2023-02-22T11:39:11.454Z,98778.41
2023-02-22T11:41:42.475Z,98777.00
2023-02-22T11:44:15.916Z,98773.94
2023-02-22T11:46:44.754Z,98770.78
2023-02-22T11:49:17.196Z,98763.19
2023-02-22T11:51:57.039Z,98763.97
2023-02-22T11:54:53.580Z,98758.22
2023-02-22T11:57:30.961Z,98761.47
2023-02-22T12:00:12.190Z,98760.81
2023-02-22T12:02:57.193Z,98758.19
2023-02-22T12:05:37.152Z,98755.50
2023-02-22T12:08:17.408Z,98754.97
2023-02-22T12:13:16.597Z,98753.94
2023-02-22T12:15:48.735Z,98760.31
2023-02-22T12:18:20.720Z,98753.47
2023-02-22T12:20:55.715Z,98758.28
2023-02-22T12:23:30.068Z,98758.28
2023-02-22T12:26:01.142Z,98758.66
2023-02-22T12:28:33.503Z,98755.31
2023-02-22T12:31:08.514Z,98751.06
2023-02-22T12:33:44.494Z,98751.84
2023-02-22T12:36:15.438Z,98737.16
2023-02-22T12:38:45.341Z,98737.47
2023-02-22T12:41:18.318Z,98726.97
2023-02-22T12:43:48.738Z,98728.19
2023-02-22T12:46:20.136Z,98739.19
2023-02-22T12:48:52.947Z,98733.59
2023-02-22T12:51:28.253Z,98735.78
2023-02-22T12:54:06.354Z,98725.22
2023-02-22T12:56:35.898Z,98721.16
2023-02-22T12:59:08.329Z,98728.00
2023-02-22T13:01:38.765Z,98724.75
2023-02-22T13:04:20.017Z,98717.28
2023-02-22T13:07:12.888Z,98729.13
2023-02-22T13:10:07.044Z,98727.09
2023-02-22T13:12:42.136Z,98727.38
2023-02-22T13:15:17.390Z,98725.19
2023-02-22T13:17:52.456Z,98731.66
2023-02-22T13:20:24.899Z,98716.31
2023-02-22T13:22:58.622Z,98717.47
2023-02-22T13:25:30.011Z,98706.75
2023-02-22T13:28:01.419Z,98706.88
2023-02-22T13:30:36.941Z,98708.78
2023-02-22T13:33:26.643Z,98705.84
2023-02-22T13:36:07.621Z,98707.09
2023-02-22T13:38:57.920Z,98700.00
2023-02-22T13:41:50.765Z,98692.28
2023-02-22T13:44:49.717Z,98704.16
2023-02-22T13:47:39.554Z,98699.88
2023-02-22T13:50:45.314Z,98692.81
2023-02-22T13:53:16.838Z,98696.22
2023-02-22T13:55:49.739Z,98706.94
2023-02-22T13:58:22.541Z,98691.50
2023-02-22T14:00:52.227Z,98688.22
2023-02-22T14:03:36.105Z,98690.72
2023-02-22T14:06:14.374Z,98691.72
2023-02-22T14:08:44.024Z,98687.13
2023-02-22T14:11:44.140Z,98690.88
2023-02-22T14:14:21.378Z,98688.75
2023-02-22T14:17:27.672Z,98687.31
2023-02-22T14:20:21.967Z,98686.47
2023-02-22T14:22:53.025Z,98684.84
2023-02-22T14:25:39.496Z,98684.75
2023-02-22T14:28:12.372Z,98686.28
2023-02-22T14:30:43.852Z,98679.47
2023-02-22T14:33:51.154Z,98671.91
2023-02-22T14:36:21.792Z,98680.31
2023-02-22T14:38:54.306Z,98677.69
2023-02-22T14:41:27.515Z,98683.97
2023-02-22T14:44:01.149Z,98680.31
2023-02-22T14:46:34.353Z,98678.03
2023-02-22T14:49:05.671Z,98666.78
2023-02-22T14:51:42.325Z,98671.03
2023-02-22T14:54:14.730Z,98675.72
2023-02-22T14:56:49.261Z,98678.69
2023-02-22T14:59:22.219Z,98675.56
2023-02-22T15:02:09.535Z,98674.63
2023-02-22T15:04:39.125Z,98679.03
2023-02-22T15:07:13.076Z,98679.66
2023-02-22T15:09:41.795Z,98679.91
2023-02-22T15:12:18.362Z,98679.28
2023-02-22T15:14:49.846Z,98677.59
2023-02-22T15:17:21.227Z,98671.91
2023-02-22T15:19:50.379Z,98674.88
2023-02-22T15:22:23.427Z,98667.28
2023-02-22T15:25:00.015Z,98671.38
2023-02-22T15:27:28.792Z,98676.72
2023-02-22T15:30:04.728Z,98671.19
2023-02-22T15:32:44.835Z,98675.63
2023-02-22T15:35:23.522Z,98667.09
2023-02-22T15:38:01.425Z,98679.94
2023-02-22T15:43:08.757Z,98677.03
2023-02-22T15:45:42.748Z,98661.66
2023-02-22T15:48:11.051Z,98668.69
2023-02-22T15:50:39.151Z,98674.09
2023-02-22T15:53:08.612Z,98668.31
2023-02-22T15:55:37.621Z,98669.06
2023-02-22T15:58:10.833Z,98670.84
2023-02-22T16:00:42.457Z,98677.84
2023-02-22T16:03:12.347Z,98667.63
2023-02-22T16:05:42.071Z,98673.38
2023-02-22T16:08:16.714Z,98677.09
2023-02-22T16:10:50.908Z,98682.91
2023-02-22T16:13:31.550Z,98671.97
2023-02-22T16:16:03.142Z,98688.97
2023-02-22T16:18:33.645Z,98683.50
2023-02-22T16:21:04.231Z,98681.38
2023-02-22T16:23:33.478Z,98681.03
2023-02-22T16:26:07.350Z,98679.47
2023-02-22T16:28:35.900Z,98676.22
2023-02-22T16:31:05.351Z,98684.91
2023-02-22T16:33:33.792Z,98684.53
2023-02-22T16:36:07.983Z,98686.22
2023-02-22T16:38:38.356Z,98680.88
2023-02-22T16:41:07.158Z,98686.25
2023-02-22T16:43:35.137Z,98685.88
2023-02-22T16:46:04.160Z,98686.56
2023-02-22T16:48:38.001Z,98685.63
2023-02-22T16:51:14.910Z,98698.00
2023-02-22T16:53:42.462Z,98688.28
2023-02-22T16:56:11.626Z,98693.97
2023-02-22T16:58:40.832Z,98688.38
2023-02-22T17:01:09.425Z,98689.00
2023-02-22T17:03:38.380Z,98683.91
2023-02-22T17:06:06.548Z,98690.38
2023-02-22T17:08:34.131Z,98690.66
2023-02-22T17:11:01.774Z,98687.81
2023-02-22T17:13:29.774Z,98687.94
2023-02-22T17:15:58.277Z,98688.16
2023-02-22T17:18:28.837Z,98691.56
2023-02-22T17:20:58.076Z,98691.72
2023-02-22T17:23:27.498Z,98694.81
2023-02-22T17:25:56.486Z,98692.59
2023-02-22T17:28:25.092Z,98698.00
2023-02-22T17:30:53.263Z,98695.38
2023-02-22T17:33:26.412Z,98697.00
2023-02-22T17:35:55.477Z,98694.44
2023-02-22T17:38:26.890Z,98693.78
2023-02-22T17:40:54.658Z,98701.28
2023-02-22T17:43:22.483Z,98698.03
2023-02-22T17:45:50.467Z,98690.84
2023-02-22T17:48:19.262Z,98699.53
2023-02-22T17:50:49.238Z,98689.88
2023-02-22T17:53:18.244Z,98687.81
2023-02-22T17:55:47.156Z,98696.81
2023-02-22T17:58:15.056Z,98691.22
2023-02-22T18:00:45.462Z,98696.47
2023-02-22T18:03:15.993Z,98688.72
2023-02-22T18:05:46.140Z,98698.31
2023-02-22T18:08:14.753Z,98696.34
2023-02-22T18:10:43.761Z,98697.69
2023-02-22T18:13:16.581Z,98695.75
2023-02-22T18:15:44.229Z,98701.94
2023-02-22T18:18:11.923Z,98706.63
2023-02-22T18:20:44.783Z,98703.22
2023-02-22T18:23:14.683Z,98700.44
2023-02-22T18:25:57.235Z,98704.22
2023-02-22T18:28:32.957Z,98693.63
2023-02-22T18:31:00.490Z,98693.97
2023-02-22T18:33:28.235Z,98706.41
2023-02-22T18:35:55.781Z,98701.28
2023-02-22T18:38:24.527Z,98700.41
2023-02-22T18:41:00.203Z,98699.69
2023-02-22T18:43:28.033Z,98703.13
2023-02-22T18:46:06.238Z,98699.69
2023-02-22T18:48:33.947Z,98674.16
2023-02-22T18:51:01.859Z,98700.75
2023-02-22T18:53:29.507Z,98709.63
2023-02-22T18:55:57.268Z,98702.09
2023-02-22T18:58:24.752Z,98705.50
2023-02-22T19:00:52.364Z,98690.72
2023-02-22T19:03:21.395Z,98704.66
2023-02-22T19:05:52.176Z,98694.00
2023-02-22T19:08:19.824Z,98696.69
2023-02-22T19:10:49.449Z,98701.75
2023-02-22T19:13:17.139Z,98680.53
2023-02-22T19:15:44.915Z,98694.38
2023-02-22T19:18:12.889Z,98693.53
2023-02-22T19:20:41.825Z,98678.09
2023-02-22T19:23:10.284Z,98683.28
2023-02-22T19:25:41.069Z,98687.09
2023-02-22T19:28:08.719Z,98685.59
2023-02-22T19:30:36.402Z,98691.78
2023-02-22T19:33:04.831Z,98690.72
2023-02-22T19:35:32.443Z,98681.06
2023-02-22T19:38:01.336Z,98679.22
2023-02-22T19:40:29.503Z,98663.31
2023-02-22T19:42:57.850Z,98678.78
2023-02-22T19:45:25.803Z,98675.66
2023-02-22T19:47:55.442Z,98690.28
2023-02-22T19:50:23.086Z,98687.72
2023-02-22T19:52:50.713Z,98690.00
2023-02-22T19:55:20.983Z,98697.22
2023-02-22T19:57:50.027Z,98690.06
2023-02-22T20:00:24.237Z,98688.56
2023-02-22T20:02:52.069Z,98688.66
2023-02-22T20:05:19.733Z,98690.28
2023-02-22T20:07:47.793Z,98695.75
2023-02-22T20:10:15.685Z,98692.22
2023-02-22T20:12:44.583Z,98701.81
2023-02-22T20:15:13.640Z,98703.41
2023-02-22T20:17:41.555Z,98703.28
2023-02-22T20:20:10.028Z,98707.59
2023-02-22T20:22:37.749Z,98703.94
2023-02-22T20:25:05.642Z,98706.81
2023-02-22T20:27:34.613Z,98695.66
2023-02-22T20:30:03.952Z,98705.13
2023-02-22T20:32:32.391Z,98707.03
2023-02-22T20:35:00.217Z,98701.75
2023-02-22T20:37:27.870Z,98696.94
2023-02-22T20:39:55.489Z,98707.38
2023-02-22T20:42:23.219Z,98711.13
2023-02-22T20:44:50.976Z,98708.50
2023-02-22T20:47:20.207Z,98711.31
2023-02-22T20:49:48.148Z,98706.91
2023-02-22T20:52:15.775Z,98710.53
2023-02-22T20:54:43.577Z,98717.88
2023-02-22T20:57:11.462Z,98712.56
2023-02-22T20:59:39.016Z,98715.13
2023-02-22T21:02:06.536Z,98715.50
2023-02-22T21:04:35.432Z,98716.28
2023-02-22T21:07:03.148Z,98723.81
2023-02-22T21:09:32.384Z,98722.91
2023-02-22T21:12:00.565Z,98717.91
2023-02-22T21:14:29.537Z,98723.63
2023-02-22T21:16:57.209Z,98723.09
2023-02-22T21:19:26.278Z,98725.34
2023-02-22T21:21:57.897Z,98720.09
2023-02-22T21:24:27.006Z,98721.06
2023-02-22T21:26:55.676Z,98723.50
2023-02-22T21:29:23.725Z,98725.22
2023-02-22T21:31:51.563Z,98726.19
2023-02-22T21:34:19.933Z,98726.94
2023-02-22T21:36:47.958Z,98726.53
2023-02-22T21:39:19.080Z,98718.53
2023-02-22T21:41:47.806Z,98722.94
2023-02-22T21:44:15.458Z,98721.94
2023-02-22T21:46:43.333Z,98720.84
2023-02-22T21:49:12.312Z,98717.44
2023-02-22T21:51:39.874Z,98715.31
2023-02-22T21:54:11.836Z,98716.00
2023-02-22T21:56:42.846Z,98721.03
2023-02-22T21:59:13.365Z,98715.00
2023-02-22T22:01:47.027Z,98710.59
2023-02-22T22:04:18.737Z,98709.59
2023-02-22T22:06:47.779Z,98711.16
2023-02-22T22:09:23.303Z,98713.59
2023-02-22T22:11:53.748Z,98710.81
2023-02-22T22:14:24.083Z,98713.38
2023-02-22T22:16:53.864Z,98708.00
2023-02-22T22:19:22.772Z,98696.97
2023-02-22T22:21:53.421Z,98707.13
2023-02-22T22:24:21.867Z,98708.25
2023-02-22T22:26:51.013Z,98710.81
2023-02-22T22:29:20.045Z,98709.84
2023-02-22T22:31:47.835Z,98710.56
2023-02-22T22:34:16.361Z,98717.44
2023-02-22T22:36:44.335Z,98710.56
2023-02-22T22:39:13.785Z,98710.56
2023-02-22T22:41:45.093Z,98715.75
2023-02-22T22:44:15.198Z,98713.19
2023-02-22T22:46:48.993Z,98704.38
2023-02-22T22:49:17.301Z,98708.06
2023-02-22T22:51:47.260Z,98710.69
2023-02-22T22:54:15.102Z,98706.41
2023-02-22T22:56:43.329Z,98710.75
2023-02-22T22:59:13.136Z,98703.66
2023-02-22T23:01:44.359Z,98707.47
2023-02-22T23:04:16.838Z,98706.41
2023-02-22T23:06:46.726Z,98701.22
2023-02-22T23:09:18.646Z,98709.97
2023-02-22T23:11:47.506Z,98708.41
2023-02-22T23:14:19.405Z,98715.50
2023-02-22T23:16:47.101Z,98710.09
2023-02-22T23:19:19.253Z,98705.63
2023-02-22T23:21:47.717Z,98710.03
2023-02-22T23:24:16.413Z,98710.88
2023-02-22T23:26:48.500Z,98709.06
2023-02-22T23:29:16.837Z,98707.22
2023-02-22T23:31:48.838Z,98706.28
2023-02-22T23:34:21.142Z,98711.53
2023-02-22T23:36:49.638Z,98707.94
2023-02-22T23:39:20.950Z,98715.81
2023-02-22T23:41:50.523Z,98715.75
2023-02-22T23:44:18.405Z,98722.50
2023-02-22T23:46:48.842Z,98719.16
2023-02-22T23:49:20.468Z,98714.81
2023-02-22T23:51:48.749Z,98713.91
2023-02-22T23:54:19.335Z,98719.09
2023-02-22T23:56:56.226Z,98718.16
2023-02-22T23:59:24.427Z,98717.44
